SOU weather

Southampton Airport
Southampton, England, United Kingdom

Public forecast

Using degrees Celsius for public forecast. Weather courtesy of forecast.io.

METAR (pilot weather report)

Report is more than 2 hours old.

Retrieved 2019/03/26 22:20 UTC (4 hours ago):

EGHI 262220Z VRB01KT CAVOK 03/01 Q1034

TAF (pilot weather forecast)

Forecast is more than 12 hours old.

Retrieved 2016/03/02 12:00 UTC (3 years ago):

TAF EGHI 021104Z 0212/0221 28015G25KT 9999 SCT020 TEMPO 0212/0221 29020G35KT PROB30 TEMPO 0212/0213 4000 SHRA BKN012CB TEMPO 0218/0221 BKN014